Bear Poplar, North Carolina
Current Conditions -  °F | °C
As of 6:35 PM on Saturday 20 Dec 2014 (Local Time) from KRUQ Reporting Station
Broken Clouds Broken Clouds  
Wind Chill: 39°   Ceiling: 6500
Heat Index: 39°   Visibility: 10mi
Dew Point: 33°   Wind: 0mph
Humidity: 79%   Direction: NA
Pressure: 30.23"   Gusts: NA
Location:  35.6421°N, 80.719°W
Report Text: KRUQ 202335Z AUTO 00000KT 10SM BKN065 04/01 A3023 RMK AO2 T00410008
Loading
Personal Weather Stations






























Interactive Weather Map New forecast layout! Learn more

10-Day Weather Forecast

Advertisements
Track Severe Weather on mobile